sensor_id;sensor_type;location;lat;lon;timestamp;P1;durP1;ratioP1;P2;durP2;ratioP2
7487;SDS011;3785;52.260;4.728;2023-08-17T00:00:17;2.35;;;0.85;;
7487;SDS011;3785;52.260;4.728;2023-08-17T00:03:38;4.47;;;1.05;;
7487;SDS011;3785;52.260;4.728;2023-08-17T00:06:59;1.83;;;0.90;;
7487;SDS011;3785;52.260;4.728;2023-08-17T00:10:21;1.60;;;0.75;;
7487;SDS011;3785;52.260;4.728;2023-08-17T00:13:41;1.35;;;0.80;;
7487;SDS011;3785;52.260;4.728;2023-08-17T00:17:02;4.45;;;0.85;;
7487;SDS011;3785;52.260;4.728;2023-08-17T00:20:24;2.22;;;0.88;;
7487;SDS011;3785;52.260;4.728;2023-08-17T00:23:45;1.55;;;0.80;;
7487;SDS011;3785;52.260;4.728;2023-08-17T00:27:06;1.70;;;0.90;;
7487;SDS011;3785;52.260;4.728;2023-08-17T00:30:26;2.55;;;0.90;;
7487;SDS011;3785;52.260;4.728;2023-08-17T00:33:47;3.38;;;1.30;;
7487;SDS011;3785;52.260;4.728;2023-08-17T00:37:08;2.63;;;0.98;;
7487;SDS011;3785;52.260;4.728;2023-08-17T00:40:29;2.10;;;1.20;;
7487;SDS011;3785;52.260;4.728;2023-08-17T00:43:50;2.45;;;1.00;;
7487;SDS011;3785;52.260;4.728;2023-08-17T00:47:11;2.42;;;0.90;;
7487;SDS011;3785;52.260;4.728;2023-08-17T00:50:32;1.65;;;0.90;;
7487;SDS011;3785;52.260;4.728;2023-08-17T00:53:56;2.05;;;1.00;;
7487;SDS011;3785;52.260;4.728;2023-08-17T00:57:18;2.97;;;0.80;;
7487;SDS011;3785;52.260;4.728;2023-08-17T01:00:40;1.48;;;0.88;;
7487;SDS011;3785;52.260;4.728;2023-08-17T01:04:01;1.77;;;1.08;;
7487;SDS011;3785;52.260;4.728;2023-08-17T01:07:21;2.08;;;0.90;;
7487;SDS011;3785;52.260;4.728;2023-08-17T01:17:54;1.42;;;0.80;;
7487;SDS011;3785;52.260;4.728;2023-08-17T01:21:17;3.00;;;0.93;;
7487;SDS011;3785;52.260;4.728;2023-08-17T01:24:38;4.00;;;1.10;;
7487;SDS011;3785;52.260;4.728;2023-08-17T01:27:59;2.22;;;0.80;;
7487;SDS011;3785;52.260;4.728;2023-08-17T01:31:25;1.10;;;0.80;;
7487;SDS011;3785;52.260;4.728;2023-08-17T01:34:54;1.02;;;0.70;;
7487;SDS011;3785;52.260;4.728;2023-08-17T01:38:17;4.38;;;0.95;;
7487;SDS011;3785;52.260;4.728;2023-08-17T01:41:39;2.55;;;0.77;;
7487;SDS011;3785;52.260;4.728;2023-08-17T01:45:01;3.75;;;1.00;;
7487;SDS011;3785;52.260;4.728;2023-08-17T01:48:22;2.80;;;0.88;;
7487;SDS011;3785;52.260;4.728;2023-08-17T01:51:43;2.03;;;0.98;;
7487;SDS011;3785;52.260;4.728;2023-08-17T01:55:04;2.97;;;1.10;;
7487;SDS011;3785;52.260;4.728;2023-08-17T01:58:25;2.30;;;0.88;;
7487;SDS011;3785;52.260;4.728;2023-08-17T02:01:46;2.22;;;0.93;;
7487;SDS011;3785;52.260;4.728;2023-08-17T02:05:07;1.75;;;0.90;;
7487;SDS011;3785;52.260;4.728;2023-08-17T02:08:29;2.55;;;1.00;;
7487;SDS011;3785;52.260;4.728;2023-08-17T02:11:50;2.22;;;1.10;;
7487;SDS011;3785;52.260;4.728;2023-08-17T02:15:11;1.65;;;0.98;;
7487;SDS011;3785;52.260;4.728;2023-08-17T02:18:32;1.77;;;0.80;;
7487;SDS011;3785;52.260;4.728;2023-08-17T02:21:54;2.40;;;0.80;;
7487;SDS011;3785;52.260;4.728;2023-08-17T02:25:15;1.85;;;0.80;;
7487;SDS011;3785;52.260;4.728;2023-08-17T02:28:36;3.03;;;0.90;;
7487;SDS011;3785;52.260;4.728;2023-08-17T02:31:57;3.03;;;0.90;;
7487;SDS011;3785;52.260;4.728;2023-08-17T02:35:18;2.55;;;1.00;;
7487;SDS011;3785;52.260;4.728;2023-08-17T02:38:39;2.40;;;0.80;;
7487;SDS011;3785;52.260;4.728;2023-08-17T02:42:00;4.30;;;0.88;;
7487;SDS011;3785;52.260;4.728;2023-08-17T02:45:21;1.75;;;0.95;;
7487;SDS011;3785;52.260;4.728;2023-08-17T02:48:43;1.30;;;0.95;;
7487;SDS011;3785;52.260;4.728;2023-08-17T02:52:04;3.13;;;1.00;;
7487;SDS011;3785;52.260;4.728;2023-08-17T02:55:29;3.03;;;0.80;;
7487;SDS011;3785;52.260;4.728;2023-08-17T02:58:51;1.10;;;0.80;;
7487;SDS011;3785;52.260;4.728;2023-08-17T03:02:12;1.70;;;0.98;;
7487;SDS011;3785;52.260;4.728;2023-08-17T03:05:37;3.28;;;0.90;;
7487;SDS011;3785;52.260;4.728;2023-08-17T03:08:59;3.50;;;0.88;;
7487;SDS011;3785;52.260;4.728;2023-08-17T03:12:20;4.85;;;0.90;;
7487;SDS011;3785;52.260;4.728;2023-08-17T03:15:42;2.10;;;0.90;;
7487;SDS011;3785;52.260;4.728;2023-08-17T03:19:03;2.00;;;0.80;;
7487;SDS011;3785;52.260;4.728;2023-08-17T03:22:28;1.48;;;0.80;;
7487;SDS011;3785;52.260;4.728;2023-08-17T03:25:53;2.45;;;1.00;;
7487;SDS011;3785;52.260;4.728;2023-08-17T03:29:15;2.90;;;0.80;;
7487;SDS011;3785;52.260;4.728;2023-08-17T03:32:35;2.70;;;0.80;;
7487;SDS011;3785;52.260;4.728;2023-08-17T03:35:57;4.07;;;0.90;;
7487;SDS011;3785;52.260;4.728;2023-08-17T03:39:18;2.97;;;0.88;;
7487;SDS011;3785;52.260;4.728;2023-08-17T03:42:43;1.83;;;0.85;;
7487;SDS011;3785;52.260;4.728;2023-08-17T03:46:04;1.63;;;0.70;;
7487;SDS011;3785;52.260;4.728;2023-08-17T03:49:25;1.27;;;0.77;;
7487;SDS011;3785;52.260;4.728;2023-08-17T03:52:46;2.40;;;1.00;;
7487;SDS011;3785;52.260;4.728;2023-08-17T03:56:07;2.22;;;1.00;;
7487;SDS011;3785;52.260;4.728;2023-08-17T03:59:28;2.28;;;0.90;;
7487;SDS011;3785;52.260;4.728;2023-08-17T04:02:49;5.13;;;1.00;;
7487;SDS011;3785;52.260;4.728;2023-08-17T04:06:10;1.27;;;0.80;;
7487;SDS011;3785;52.260;4.728;2023-08-17T04:09:31;1.25;;;0.85;;
7487;SDS011;3785;52.260;4.728;2023-08-17T04:12:53;1.98;;;0.60;;
7487;SDS011;3785;52.260;4.728;2023-08-17T04:16:15;2.58;;;1.02;;
7487;SDS011;3785;52.260;4.728;2023-08-17T04:19:36;1.40;;;0.88;;
7487;SDS011;3785;52.260;4.728;2023-08-17T04:22:57;1.58;;;0.77;;
7487;SDS011;3785;52.260;4.728;2023-08-17T04:26:18;4.13;;;0.93;;
7487;SDS011;3785;52.260;4.728;2023-08-17T04:29:39;2.22;;;0.60;;
7487;SDS011;3785;52.260;4.728;2023-08-17T04:32:59;2.55;;;0.90;;
7487;SDS011;3785;52.260;4.728;2023-08-17T04:36:20;1.92;;;0.80;;
7487;SDS011;3785;52.260;4.728;2023-08-17T04:39:41;2.58;;;0.70;;
7487;SDS011;3785;52.260;4.728;2023-08-17T04:43:03;1.30;;;0.80;;
7487;SDS011;3785;52.260;4.728;2023-08-17T04:46:24;1.20;;;0.73;;
7487;SDS011;3785;52.260;4.728;2023-08-17T04:49:45;1.50;;;0.60;;
7487;SDS011;3785;52.260;4.728;2023-08-17T04:53:06;2.25;;;1.00;;
7487;SDS011;3785;52.260;4.728;2023-08-17T04:56:27;1.45;;;0.80;;
7487;SDS011;3785;52.260;4.728;2023-08-17T04:59:48;1.20;;;0.60;;
7487;SDS011;3785;52.260;4.728;2023-08-17T05:03:09;1.55;;;0.75;;
7487;SDS011;3785;52.260;4.728;2023-08-17T05:06:30;1.90;;;0.90;;
7487;SDS011;3785;52.260;4.728;2023-08-17T05:09:51;1.92;;;0.88;;
7487;SDS011;3785;52.260;4.728;2023-08-17T05:13:12;2.55;;;0.90;;
7487;SDS011;3785;52.260;4.728;2023-08-17T05:16:33;2.28;;;0.90;;
7487;SDS011;3785;52.260;4.728;2023-08-17T05:19:54;2.08;;;0.90;;
7487;SDS011;3785;52.260;4.728;2023-08-17T05:23:15;3.42;;;0.98;;
7487;SDS011;3785;52.260;4.728;2023-08-17T05:26:36;2.47;;;1.00;;
7487;SDS011;3785;52.260;4.728;2023-08-17T05:29:57;1.88;;;1.00;;
7487;SDS011;3785;52.260;4.728;2023-08-17T05:33:18;1.55;;;0.80;;
7487;SDS011;3785;52.260;4.728;2023-08-17T05:36:39;3.20;;;0.80;;
7487;SDS011;3785;52.260;4.728;2023-08-17T05:40:01;1.60;;;0.70;;
7487;SDS011;3785;52.260;4.728;2023-08-17T05:43:22;1.00;;;0.70;;
7487;SDS011;3785;52.260;4.728;2023-08-17T05:46:43;2.83;;;1.08;;
7487;SDS011;3785;52.260;4.728;2023-08-17T05:50:04;1.80;;;0.63;;
7487;SDS011;3785;52.260;4.728;2023-08-17T05:53:25;2.03;;;0.90;;
7487;SDS011;3785;52.260;4.728;2023-08-17T05:56:46;1.83;;;0.90;;
7487;SDS011;3785;52.260;4.728;2023-08-17T06:00:07;2.05;;;0.70;;
7487;SDS011;3785;52.260;4.728;2023-08-17T06:03:32;1.92;;;0.73;;
7487;SDS011;3785;52.260;4.728;2023-08-17T06:06:53;1.88;;;0.80;;
7487;SDS011;3785;52.260;4.728;2023-08-17T06:10:14;2.78;;;1.00;;
7487;SDS011;3785;52.260;4.728;2023-08-17T06:13:34;4.60;;;1.20;;
7487;SDS011;3785;52.260;4.728;2023-08-17T06:16:55;1.92;;;1.00;;
7487;SDS011;3785;52.260;4.728;2023-08-17T06:20:17;3.10;;;0.98;;
7487;SDS011;3785;52.260;4.728;2023-08-17T06:23:38;2.85;;;0.98;;
7487;SDS011;3785;52.260;4.728;2023-08-17T06:26:59;3.95;;;1.15;;
7487;SDS011;3785;52.260;4.728;2023-08-17T06:30:20;3.25;;;0.93;;
7487;SDS011;3785;52.260;4.728;2023-08-17T06:33:41;1.42;;;0.90;;
7487;SDS011;3785;52.260;4.728;2023-08-17T06:37:02;1.98;;;0.65;;
7487;SDS011;3785;52.260;4.728;2023-08-17T06:40:26;2.75;;;1.10;;
7487;SDS011;3785;52.260;4.728;2023-08-17T06:43:47;4.60;;;1.00;;
7487;SDS011;3785;52.260;4.728;2023-08-17T06:47:08;3.30;;;0.98;;
7487;SDS011;3785;52.260;4.728;2023-08-17T06:50:29;2.03;;;0.98;;
7487;SDS011;3785;52.260;4.728;2023-08-17T06:53:50;2.13;;;0.85;;
7487;SDS011;3785;52.260;4.728;2023-08-17T06:57:11;1.98;;;0.88;;
7487;SDS011;3785;52.260;4.728;2023-08-17T07:00:32;3.53;;;0.82;;
7487;SDS011;3785;52.260;4.728;2023-08-17T07:03:55;2.03;;;0.75;;
7487;SDS011;3785;52.260;4.728;2023-08-17T07:07:17;1.83;;;0.75;;
7487;SDS011;3785;52.260;4.728;2023-08-17T07:10:38;1.13;;;0.80;;
7487;SDS011;3785;52.260;4.728;2023-08-17T07:13:59;1.50;;;0.85;;
7487;SDS011;3785;52.260;4.728;2023-08-17T07:17:20;1.23;;;0.77;;
7487;SDS011;3785;52.260;4.728;2023-08-17T07:20:41;1.42;;;0.63;;
7487;SDS011;3785;52.260;4.728;2023-08-17T07:24:11;1.58;;;0.85;;
7487;SDS011;3785;52.260;4.728;2023-08-17T07:27:32;2.13;;;0.70;;
7487;SDS011;3785;52.260;4.728;2023-08-17T07:30:53;2.03;;;0.68;;
7487;SDS011;3785;52.260;4.728;2023-08-17T07:34:14;2.03;;;0.70;;
7487;SDS011;3785;52.260;4.728;2023-08-17T07:37:35;1.15;;;0.60;;
7487;SDS011;3785;52.260;4.728;2023-08-17T07:40:56;1.67;;;0.70;;
7487;SDS011;3785;52.260;4.728;2023-08-17T07:44:17;0.75;;;0.52;;
7487;SDS011;3785;52.260;4.728;2023-08-17T07:47:38;1.63;;;0.70;;
7487;SDS011;3785;52.260;4.728;2023-08-17T07:50:59;1.20;;;0.63;;
7487;SDS011;3785;52.260;4.728;2023-08-17T07:54:20;3.08;;;0.70;;
7487;SDS011;3785;52.260;4.728;2023-08-17T07:57:41;1.10;;;0.57;;
7487;SDS011;3785;52.260;4.728;2023-08-17T08:01:02;0.82;;;0.60;;
7487;SDS011;3785;52.260;4.728;2023-08-17T08:04:23;1.85;;;0.80;;
7487;SDS011;3785;52.260;4.728;2023-08-17T08:07:44;1.08;;;0.60;;
7487;SDS011;3785;52.260;4.728;2023-08-17T08:11:05;1.25;;;0.52;;
7487;SDS011;3785;52.260;4.728;2023-08-17T08:14:26;1.60;;;0.70;;
7487;SDS011;3785;52.260;4.728;2023-08-17T08:17:47;1.80;;;0.70;;
7487;SDS011;3785;52.260;4.728;2023-08-17T08:21:08;1.20;;;0.40;;
7487;SDS011;3785;52.260;4.728;2023-08-17T08:24:29;1.85;;;0.68;;
7487;SDS011;3785;52.260;4.728;2023-08-17T08:27:53;1.23;;;0.60;;
7487;SDS011;3785;52.260;4.728;2023-08-17T08:31:14;1.52;;;0.85;;
7487;SDS011;3785;52.260;4.728;2023-08-17T08:34:35;2.22;;;0.60;;
7487;SDS011;3785;52.260;4.728;2023-08-17T08:37:58;2.85;;;0.70;;
7487;SDS011;3785;52.260;4.728;2023-08-17T08:41:19;1.38;;;0.60;;
7487;SDS011;3785;52.260;4.728;2023-08-17T08:44:40;1.50;;;0.82;;
7487;SDS011;3785;52.260;4.728;2023-08-17T08:48:01;2.30;;;0.90;;
7487;SDS011;3785;52.260;4.728;2023-08-17T08:51:25;2.50;;;0.70;;
7487;SDS011;3785;52.260;4.728;2023-08-17T08:54:49;1.13;;;0.70;;
7487;SDS011;3785;52.260;4.728;2023-08-17T08:58:11;1.80;;;0.80;;
7487;SDS011;3785;52.260;4.728;2023-08-17T09:01:32;3.08;;;0.80;;
7487;SDS011;3785;52.260;4.728;2023-08-17T09:04:54;2.05;;;0.75;;
7487;SDS011;3785;52.260;4.728;2023-08-17T09:08:15;1.27;;;0.68;;
7487;SDS011;3785;52.260;4.728;2023-08-17T09:11:36;1.15;;;0.73;;
7487;SDS011;3785;52.260;4.728;2023-08-17T09:14:57;1.77;;;0.85;;
7487;SDS011;3785;52.260;4.728;2023-08-17T09:18:18;2.30;;;0.70;;
7487;SDS011;3785;52.260;4.728;2023-08-17T09:21:39;1.25;;;0.80;;
7487;SDS011;3785;52.260;4.728;2023-08-17T09:25:00;2.25;;;0.82;;
7487;SDS011;3785;52.260;4.728;2023-08-17T09:28:21;2.17;;;1.00;;
7487;SDS011;3785;52.260;4.728;2023-08-17T09:31:43;2.45;;;0.77;;
7487;SDS011;3785;52.260;4.728;2023-08-17T09:35:04;2.00;;;0.90;;
7487;SDS011;3785;52.260;4.728;2023-08-17T09:38:26;2.50;;;0.80;;
7487;SDS011;3785;52.260;4.728;2023-08-17T09:41:47;1.80;;;0.80;;
7487;SDS011;3785;52.260;4.728;2023-08-17T09:45:08;2.53;;;0.70;;
7487;SDS011;3785;52.260;4.728;2023-08-17T09:48:29;2.13;;;0.60;;
7487;SDS011;3785;52.260;4.728;2023-08-17T09:51:51;2.50;;;0.88;;
7487;SDS011;3785;52.260;4.728;2023-08-17T09:55:14;1.40;;;0.90;;
7487;SDS011;3785;52.260;4.728;2023-08-17T09:58:35;1.10;;;0.80;;
7487;SDS011;3785;52.260;4.728;2023-08-17T10:01:56;2.13;;;0.88;;
7487;SDS011;3785;52.260;4.728;2023-08-17T10:05:19;2.78;;;0.70;;
7487;SDS011;3785;52.260;4.728;2023-08-17T10:08:47;1.73;;;0.90;;
7487;SDS011;3785;52.260;4.728;2023-08-17T10:12:10;1.23;;;0.70;;
7487;SDS011;3785;52.260;4.728;2023-08-17T10:15:32;1.50;;;0.82;;
7487;SDS011;3785;52.260;4.728;2023-08-17T10:18:54;2.08;;;0.80;;
7487;SDS011;3785;52.260;4.728;2023-08-17T10:22:17;1.77;;;0.90;;
7487;SDS011;3785;52.260;4.728;2023-08-17T10:25:39;2.90;;;1.00;;
7487;SDS011;3785;52.260;4.728;2023-08-17T10:29:02;1.85;;;0.98;;
7487;SDS011;3785;52.260;4.728;2023-08-17T10:32:23;2.15;;;1.00;;
7487;SDS011;3785;52.260;4.728;2023-08-17T10:35:45;1.85;;;0.90;;
7487;SDS011;3785;52.260;4.728;2023-08-17T10:42:39;1.30;;;0.95;;
7487;SDS011;3785;52.260;4.728;2023-08-17T10:46:16;2.97;;;1.05;;
7487;SDS011;3785;52.260;4.728;2023-08-17T10:49:37;1.88;;;1.10;;
7487;SDS011;3785;52.260;4.728;2023-08-17T10:52:58;2.53;;;1.38;;
7487;SDS011;3785;52.260;4.728;2023-08-17T10:56:26;2.72;;;1.08;;
7487;SDS011;3785;52.260;4.728;2023-08-17T11:03:33;1.85;;;1.00;;
7487;SDS011;3785;52.260;4.728;2023-08-17T11:07:05;1.85;;;1.10;;
7487;SDS011;3785;52.260;4.728;2023-08-17T11:10:36;2.47;;;1.42;;
7487;SDS011;3785;52.260;4.728;2023-08-17T11:13:58;1.70;;;1.00;;
7487;SDS011;3785;52.260;4.728;2023-08-17T11:17:21;2.13;;;1.10;;
7487;SDS011;3785;52.260;4.728;2023-08-17T11:20:42;2.10;;;1.23;;
7487;SDS011;3785;52.260;4.728;2023-08-17T11:24:04;3.75;;;1.25;;
7487;SDS011;3785;52.260;4.728;2023-08-17T11:27:30;2.42;;;1.15;;
7487;SDS011;3785;52.260;4.728;2023-08-17T11:30:57;2.88;;;1.15;;
7487;SDS011;3785;52.260;4.728;2023-08-17T11:34:18;1.75;;;0.85;;
7487;SDS011;3785;52.260;4.728;2023-08-17T11:37:40;1.73;;;0.93;;
7487;SDS011;3785;52.260;4.728;2023-08-17T11:41:02;1.63;;;0.93;;
7487;SDS011;3785;52.260;4.728;2023-08-17T11:44:24;1.98;;;0.93;;
7487;SDS011;3785;52.260;4.728;2023-08-17T11:47:46;1.90;;;1.08;;
7487;SDS011;3785;52.260;4.728;2023-08-17T11:51:07;1.83;;;0.98;;
7487;SDS011;3785;52.260;4.728;2023-08-17T11:54:28;1.95;;;1.10;;
7487;SDS011;3785;52.260;4.728;2023-08-17T11:57:53;2.03;;;0.95;;
7487;SDS011;3785;52.260;4.728;2023-08-17T12:01:14;3.22;;;1.15;;
7487;SDS011;3785;52.260;4.728;2023-08-17T12:04:36;1.77;;;0.95;;
7487;SDS011;3785;52.260;4.728;2023-08-17T12:07:57;2.08;;;0.90;;
7487;SDS011;3785;52.260;4.728;2023-08-17T12:11:17;1.17;;;0.73;;
7487;SDS011;3785;52.260;4.728;2023-08-17T12:14:41;3.53;;;1.00;;
7487;SDS011;3785;52.260;4.728;2023-08-17T12:18:03;2.30;;;0.88;;
7487;SDS011;3785;52.260;4.728;2023-08-17T12:21:24;2.55;;;0.90;;
7487;SDS011;3785;52.260;4.728;2023-08-17T12:24:48;1.95;;;0.88;;
7487;SDS011;3785;52.260;4.728;2023-08-17T12:28:12;3.15;;;0.77;;
7487;SDS011;3785;52.260;4.728;2023-08-17T12:31:33;2.03;;;1.00;;
7487;SDS011;3785;52.260;4.728;2023-08-17T12:34:54;1.30;;;0.90;;
7487;SDS011;3785;52.260;4.728;2023-08-17T12:38:15;2.38;;;0.95;;
7487;SDS011;3785;52.260;4.728;2023-08-17T12:41:36;1.60;;;0.93;;
7487;SDS011;3785;52.260;4.728;2023-08-17T12:44:57;2.22;;;0.90;;
7487;SDS011;3785;52.260;4.728;2023-08-17T12:48:18;1.27;;;0.82;;
7487;SDS011;3785;52.260;4.728;2023-08-17T12:51:39;2.80;;;0.85;;
7487;SDS011;3785;52.260;4.728;2023-08-17T12:55:00;1.27;;;0.80;;
7487;SDS011;3785;52.260;4.728;2023-08-17T12:58:21;3.20;;;1.00;;
7487;SDS011;3785;52.260;4.728;2023-08-17T13:01:42;1.75;;;1.10;;
7487;SDS011;3785;52.260;4.728;2023-08-17T13:05:03;2.05;;;0.93;;
7487;SDS011;3785;52.260;4.728;2023-08-17T13:08:24;1.70;;;0.90;;
7487;SDS011;3785;52.260;4.728;2023-08-17T13:11:45;3.40;;;1.10;;
7487;SDS011;3785;52.260;4.728;2023-08-17T13:15:06;1.52;;;0.90;;
7487;SDS011;3785;52.260;4.728;2023-08-17T13:18:27;1.30;;;0.80;;
7487;SDS011;3785;52.260;4.728;2023-08-17T13:21:48;1.85;;;0.75;;
7487;SDS011;3785;52.260;4.728;2023-08-17T13:25:09;1.48;;;0.90;;
7487;SDS011;3785;52.260;4.728;2023-08-17T13:28:30;1.65;;;0.90;;
7487;SDS011;3785;52.260;4.728;2023-08-17T13:31:51;2.40;;;0.90;;
7487;SDS011;3785;52.260;4.728;2023-08-17T13:35:13;1.10;;;0.70;;
7487;SDS011;3785;52.260;4.728;2023-08-17T13:38:34;2.67;;;1.02;;
7487;SDS011;3785;52.260;4.728;2023-08-17T13:41:55;2.65;;;1.00;;
7487;SDS011;3785;52.260;4.728;2023-08-17T13:45:17;3.20;;;1.23;;
7487;SDS011;3785;52.260;4.728;2023-08-17T13:48:38;1.52;;;0.90;;
7487;SDS011;3785;52.260;4.728;2023-08-17T13:51:59;1.83;;;1.00;;
7487;SDS011;3785;52.260;4.728;2023-08-17T13:55:20;2.47;;;1.17;;
7487;SDS011;3785;52.260;4.728;2023-08-17T13:58:41;3.15;;;1.23;;
7487;SDS011;3785;52.260;4.728;2023-08-17T14:02:02;2.45;;;1.25;;
7487;SDS011;3785;52.260;4.728;2023-08-17T14:05:23;1.58;;;0.90;;
7487;SDS011;3785;52.260;4.728;2023-08-17T14:08:44;2.20;;;1.30;;
7487;SDS011;3785;52.260;4.728;2023-08-17T14:12:05;2.78;;;1.50;;
7487;SDS011;3785;52.260;4.728;2023-08-17T14:15:26;1.70;;;1.20;;
7487;SDS011;3785;52.260;4.728;2023-08-17T14:18:47;2.20;;;1.13;;
7487;SDS011;3785;52.260;4.728;2023-08-17T14:22:08;1.98;;;1.08;;
7487;SDS011;3785;52.260;4.728;2023-08-17T14:25:29;2.50;;;1.23;;
7487;SDS011;3785;52.260;4.728;2023-08-17T14:28:50;1.88;;;1.10;;
7487;SDS011;3785;52.260;4.728;2023-08-17T14:32:10;3.15;;;1.27;;
7487;SDS011;3785;52.260;4.728;2023-08-17T14:35:32;2.55;;;1.05;;
7487;SDS011;3785;52.260;4.728;2023-08-17T14:38:53;2.17;;;1.20;;
7487;SDS011;3785;52.260;4.728;2023-08-17T14:42:14;2.55;;;1.25;;
7487;SDS011;3785;52.260;4.728;2023-08-17T14:45:35;1.45;;;1.00;;
7487;SDS011;3785;52.260;4.728;2023-08-17T14:48:56;2.42;;;1.05;;
7487;SDS011;3785;52.260;4.728;2023-08-17T14:52:17;3.42;;;1.65;;
7487;SDS011;3785;52.260;4.728;2023-08-17T14:55:38;2.65;;;1.55;;
7487;SDS011;3785;52.260;4.728;2023-08-17T14:58:59;2.42;;;1.17;;
7487;SDS011;3785;52.260;4.728;2023-08-17T15:02:20;2.95;;;1.42;;
7487;SDS011;3785;52.260;4.728;2023-08-17T15:05:41;2.33;;;1.35;;
7487;SDS011;3785;52.260;4.728;2023-08-17T15:09:02;1.77;;;1.30;;
7487;SDS011;3785;52.260;4.728;2023-08-17T15:12:23;3.10;;;1.30;;
7487;SDS011;3785;52.260;4.728;2023-08-17T15:15:44;2.40;;;1.48;;
7487;SDS011;3785;52.260;4.728;2023-08-17T15:19:05;1.70;;;1.00;;
7487;SDS011;3785;52.260;4.728;2023-08-17T15:22:26;2.53;;;1.70;;
7487;SDS011;3785;52.260;4.728;2023-08-17T15:25:47;1.83;;;1.20;;
7487;SDS011;3785;52.260;4.728;2023-08-17T15:29:08;2.50;;;1.00;;
7487;SDS011;3785;52.260;4.728;2023-08-17T15:32:29;1.35;;;0.82;;
7487;SDS011;3785;52.260;4.728;2023-08-17T15:35:50;1.45;;;0.70;;
7487;SDS011;3785;52.260;4.728;2023-08-17T15:39:11;3.13;;;1.20;;
7487;SDS011;3785;52.260;4.728;2023-08-17T15:42:32;2.53;;;1.10;;
7487;SDS011;3785;52.260;4.728;2023-08-17T15:45:53;4.65;;;1.00;;
7487;SDS011;3785;52.260;4.728;2023-08-17T15:49:14;1.63;;;1.00;;
7487;SDS011;3785;52.260;4.728;2023-08-17T15:52:36;1.60;;;0.80;;
7487;SDS011;3785;52.260;4.728;2023-08-17T15:55:57;2.33;;;1.00;;
7487;SDS011;3785;52.260;4.728;2023-08-17T15:59:18;3.72;;;1.33;;
7487;SDS011;3785;52.260;4.728;2023-08-17T16:02:39;2.15;;;1.00;;
7487;SDS011;3785;52.260;4.728;2023-08-17T16:06:00;3.10;;;1.33;;
7487;SDS011;3785;52.260;4.728;2023-08-17T16:09:21;2.17;;;1.13;;
7487;SDS011;3785;52.260;4.728;2023-08-17T16:12:42;2.13;;;1.17;;
7487;SDS011;3785;52.260;4.728;2023-08-17T16:16:03;2.03;;;1.15;;
7487;SDS011;3785;52.260;4.728;2023-08-17T16:19:24;1.75;;;1.10;;
7487;SDS011;3785;52.260;4.728;2023-08-17T16:22:45;2.88;;;1.10;;
7487;SDS011;3785;52.260;4.728;2023-08-17T16:26:06;1.40;;;1.10;;
7487;SDS011;3785;52.260;4.728;2023-08-17T16:29:27;2.03;;;0.95;;
7487;SDS011;3785;52.260;4.728;2023-08-17T16:32:49;3.65;;;1.13;;
7487;SDS011;3785;52.260;4.728;2023-08-17T16:36:10;3.28;;;1.50;;
7487;SDS011;3785;52.260;4.728;2023-08-17T16:39:31;3.22;;;1.45;;
7487;SDS011;3785;52.260;4.728;2023-08-17T16:42:52;2.58;;;1.50;;
7487;SDS011;3785;52.260;4.728;2023-08-17T16:46:12;2.65;;;1.30;;
7487;SDS011;3785;52.260;4.728;2023-08-17T16:49:33;2.03;;;1.30;;
7487;SDS011;3785;52.260;4.728;2023-08-17T16:52:56;1.58;;;1.25;;
7487;SDS011;3785;52.260;4.728;2023-08-17T16:56:17;1.48;;;1.20;;
7487;SDS011;3785;52.260;4.728;2023-08-17T16:59:38;1.98;;;1.20;;
7487;SDS011;3785;52.260;4.728;2023-08-17T17:02:59;2.00;;;1.10;;
7487;SDS011;3785;52.260;4.728;2023-08-17T17:06:20;2.85;;;1.42;;
7487;SDS011;3785;52.260;4.728;2023-08-17T17:09:41;1.88;;;1.40;;
7487;SDS011;3785;52.260;4.728;2023-08-17T17:13:04;2.25;;;1.70;;
7487;SDS011;3785;52.260;4.728;2023-08-17T17:16:25;2.20;;;1.50;;
7487;SDS011;3785;52.260;4.728;2023-08-17T17:19:46;2.80;;;1.75;;
7487;SDS011;3785;52.260;4.728;2023-08-17T17:23:07;2.80;;;2.03;;
7487;SDS011;3785;52.260;4.728;2023-08-17T17:26:28;2.75;;;2.00;;
7487;SDS011;3785;52.260;4.728;2023-08-17T17:29:48;4.00;;;2.17;;
7487;SDS011;3785;52.260;4.728;2023-08-17T17:33:09;3.58;;;2.33;;
7487;SDS011;3785;52.260;4.728;2023-08-17T17:36:31;3.53;;;2.47;;
7487;SDS011;3785;52.260;4.728;2023-08-17T17:39:52;3.17;;;2.25;;
7487;SDS011;3785;52.260;4.728;2023-08-17T17:43:13;4.05;;;2.60;;
7487;SDS011;3785;52.260;4.728;2023-08-17T17:46:34;4.13;;;2.25;;
7487;SDS011;3785;52.260;4.728;2023-08-17T17:49:55;3.80;;;2.58;;
7487;SDS011;3785;52.260;4.728;2023-08-17T17:53:16;3.50;;;2.60;;
7487;SDS011;3785;52.260;4.728;2023-08-17T17:59:58;3.58;;;2.03;;
7487;SDS011;3785;52.260;4.728;2023-08-17T18:03:19;3.35;;;2.17;;
7487;SDS011;3785;52.260;4.728;2023-08-17T18:06:40;3.78;;;2.15;;
7487;SDS011;3785;52.260;4.728;2023-08-17T18:10:01;2.72;;;1.85;;
7487;SDS011;3785;52.260;4.728;2023-08-17T18:13:23;3.92;;;2.10;;
7487;SDS011;3785;52.260;4.728;2023-08-17T18:16:44;4.25;;;1.90;;
7487;SDS011;3785;52.260;4.728;2023-08-17T18:20:05;2.67;;;2.25;;
7487;SDS011;3785;52.260;4.728;2023-08-17T18:23:26;3.63;;;2.28;;
7487;SDS011;3785;52.260;4.728;2023-08-17T18:26:48;4.05;;;2.28;;
7487;SDS011;3785;52.260;4.728;2023-08-17T18:30:09;3.47;;;2.35;;
7487;SDS011;3785;52.260;4.728;2023-08-17T18:33:30;4.50;;;2.30;;
7487;SDS011;3785;52.260;4.728;2023-08-17T18:36:52;2.90;;;1.83;;
7487;SDS011;3785;52.260;4.728;2023-08-17T18:40:13;4.18;;;2.40;;
7487;SDS011;3785;52.260;4.728;2023-08-17T18:43:34;3.50;;;2.58;;
7487;SDS011;3785;52.260;4.728;2023-08-17T18:46:55;4.35;;;2.90;;
7487;SDS011;3785;52.260;4.728;2023-08-17T18:50:16;3.33;;;2.30;;
7487;SDS011;3785;52.260;4.728;2023-08-17T18:53:37;3.88;;;2.65;;
7487;SDS011;3785;52.260;4.728;2023-08-17T18:56:58;4.00;;;2.75;;
7487;SDS011;3785;52.260;4.728;2023-08-17T19:00:20;6.45;;;3.25;;
7487;SDS011;3785;52.260;4.728;2023-08-17T19:03:41;5.18;;;2.78;;
7487;SDS011;3785;52.260;4.728;2023-08-17T19:07:02;4.18;;;3.20;;
7487;SDS011;3785;52.260;4.728;2023-08-17T19:10:23;4.88;;;3.30;;
7487;SDS011;3785;52.260;4.728;2023-08-17T19:13:45;4.55;;;3.20;;
7487;SDS011;3785;52.260;4.728;2023-08-17T19:17:06;3.75;;;2.95;;
7487;SDS011;3785;52.260;4.728;2023-08-17T19:20:27;5.15;;;3.17;;
7487;SDS011;3785;52.260;4.728;2023-08-17T19:23:48;4.40;;;2.85;;
7487;SDS011;3785;52.260;4.728;2023-08-17T19:27:09;3.83;;;2.72;;
7487;SDS011;3785;52.260;4.728;2023-08-17T19:30:30;4.15;;;3.03;;
7487;SDS011;3785;52.260;4.728;2023-08-17T19:33:51;5.20;;;2.92;;
7487;SDS011;3785;52.260;4.728;2023-08-17T19:37:12;3.75;;;2.97;;
7487;SDS011;3785;52.260;4.728;2023-08-17T19:40:33;5.25;;;3.05;;
7487;SDS011;3785;52.260;4.728;2023-08-17T19:43:54;3.05;;;2.42;;
7487;SDS011;3785;52.260;4.728;2023-08-17T19:47:15;3.25;;;2.75;;
7487;SDS011;3785;52.260;4.728;2023-08-17T19:50:37;4.85;;;2.95;;
7487;SDS011;3785;52.260;4.728;2023-08-17T19:53:58;4.35;;;2.97;;
7487;SDS011;3785;52.260;4.728;2023-08-17T19:57:19;3.90;;;3.00;;
7487;SDS011;3785;52.260;4.728;2023-08-17T20:00:40;3.90;;;2.85;;
7487;SDS011;3785;52.260;4.728;2023-08-17T20:04:02;3.60;;;2.88;;
7487;SDS011;3785;52.260;4.728;2023-08-17T20:07:23;2.58;;;2.17;;
7487;SDS011;3785;52.260;4.728;2023-08-17T20:10:44;5.25;;;3.40;;
7487;SDS011;3785;52.260;4.728;2023-08-17T20:14:05;3.80;;;2.80;;
7487;SDS011;3785;52.260;4.728;2023-08-17T20:17:26;5.03;;;3.20;;
7487;SDS011;3785;52.260;4.728;2023-08-17T20:20:51;3.80;;;3.00;;
7487;SDS011;3785;52.260;4.728;2023-08-17T20:24:13;4.47;;;3.42;;
7487;SDS011;3785;52.260;4.728;2023-08-17T20:27:35;4.57;;;3.53;;
7487;SDS011;3785;52.260;4.728;2023-08-17T20:30:57;4.75;;;3.60;;
7487;SDS011;3785;52.260;4.728;2023-08-17T20:34:21;4.45;;;3.38;;
7487;SDS011;3785;52.260;4.728;2023-08-17T20:37:42;4.03;;;3.38;;
7487;SDS011;3785;52.260;4.728;2023-08-17T20:41:03;4.80;;;3.50;;
7487;SDS011;3785;52.260;4.728;2023-08-17T20:44:24;5.22;;;3.58;;
7487;SDS011;3785;52.260;4.728;2023-08-17T20:47:45;7.05;;;3.72;;
7487;SDS011;3785;52.260;4.728;2023-08-17T20:51:09;4.82;;;3.58;;
7487;SDS011;3785;52.260;4.728;2023-08-17T20:54:30;3.35;;;2.80;;
7487;SDS011;3785;52.260;4.728;2023-08-17T20:57:51;4.82;;;3.30;;
7487;SDS011;3785;52.260;4.728;2023-08-17T21:01:12;4.45;;;3.33;;
7487;SDS011;3785;52.260;4.728;2023-08-17T21:04:33;4.68;;;3.42;;
7487;SDS011;3785;52.260;4.728;2023-08-17T21:07:54;4.60;;;3.58;;